sensor_id;sensor_type;location;lat;lon;timestamp;temperature;humidity
9810;DHT22;4944;52.514;13.192;2023-05-09T00:01:28;14.00;93.80
9810;DHT22;4944;52.514;13.192;2023-05-09T00:03:57;14.00;93.90
9810;DHT22;4944;52.514;13.192;2023-05-09T00:06:24;14.00;93.90
9810;DHT22;4944;52.514;13.192;2023-05-09T00:08:52;14.00;94.00
9810;DHT22;4944;52.514;13.192;2023-05-09T00:11:19;13.90;94.10
9810;DHT22;4944;52.514;13.192;2023-05-09T00:13:46;13.90;94.20
9810;DHT22;4944;52.514;13.192;2023-05-09T00:16:13;13.80;94.30
9810;DHT22;4944;52.514;13.192;2023-05-09T00:18:41;13.80;94.40
9810;DHT22;4944;52.514;13.192;2023-05-09T00:21:11;13.80;94.40
9810;DHT22;4944;52.514;13.192;2023-05-09T00:23:38;13.80;94.50
9810;DHT22;4944;52.514;13.192;2023-05-09T00:26:05;13.80;94.40
9810;DHT22;4944;52.514;13.192;2023-05-09T00:28:32;13.70;94.50
9810;DHT22;4944;52.514;13.192;2023-05-09T00:30:59;13.70;94.50
9810;DHT22;4944;52.514;13.192;2023-05-09T00:33:26;13.70;94.50
9810;DHT22;4944;52.514;13.192;2023-05-09T00:35:53;13.60;94.60
9810;DHT22;4944;52.514;13.192;2023-05-09T00:38:23;13.60;94.70
9810;DHT22;4944;52.514;13.192;2023-05-09T00:40:50;13.60;94.80
9810;DHT22;4944;52.514;13.192;2023-05-09T00:43:17;13.60;94.80
9810;DHT22;4944;52.514;13.192;2023-05-09T00:45:44;13.50;94.90
9810;DHT22;4944;52.514;13.192;2023-05-09T00:48:17;13.50;95.00
9810;DHT22;4944;52.514;13.192;2023-05-09T00:50:44;13.50;95.10
9810;DHT22;4944;52.514;13.192;2023-05-09T00:53:12;13.40;94.90
9810;DHT22;4944;52.514;13.192;2023-05-09T00:55:40;13.40;94.90
9810;DHT22;4944;52.514;13.192;2023-05-09T00:58:09;13.40;95.00
9810;DHT22;4944;52.514;13.192;2023-05-09T01:00:36;13.40;95.00
9810;DHT22;4944;52.514;13.192;2023-05-09T01:03:04;13.40;95.00
9810;DHT22;4944;52.514;13.192;2023-05-09T01:05:37;13.40;95.10
9810;DHT22;4944;52.514;13.192;2023-05-09T01:08:09;13.30;95.00
9810;DHT22;4944;52.514;13.192;2023-05-09T01:10:47;13.30;95.10
9810;DHT22;4944;52.514;13.192;2023-05-09T01:13:22;13.30;95.00
9810;DHT22;4944;52.514;13.192;2023-05-09T01:15:54;13.20;95.00
9810;DHT22;4944;52.514;13.192;2023-05-09T01:18:32;13.20;95.00
9810;DHT22;4944;52.514;13.192;2023-05-09T01:21:03;13.20;95.10
9810;DHT22;4944;52.514;13.192;2023-05-09T01:26:43;13.20;95.00
9810;DHT22;4944;52.514;13.192;2023-05-09T01:29:36;13.10;94.90
9810;DHT22;4944;52.514;13.192;2023-05-09T01:32:06;13.10;95.00
9810;DHT22;4944;52.514;13.192;2023-05-09T01:34:34;13.10;94.90
9810;DHT22;4944;52.514;13.192;2023-05-09T01:37:04;13.10;94.90
9810;DHT22;4944;52.514;13.192;2023-05-09T01:39:33;13.00;95.00
9810;DHT22;4944;52.514;13.192;2023-05-09T01:42:07;13.00;94.90
9810;DHT22;4944;52.514;13.192;2023-05-09T01:44:38;13.00;94.90
9810;DHT22;4944;52.514;13.192;2023-05-09T01:47:06;13.00;94.90
9810;DHT22;4944;52.514;13.192;2023-05-09T01:49:35;13.00;94.90
9810;DHT22;4944;52.514;13.192;2023-05-09T01:52:04;13.00;95.00
9810;DHT22;4944;52.514;13.192;2023-05-09T01:54:33;13.00;94.80
9810;DHT22;4944;52.514;13.192;2023-05-09T01:57:02;12.90;94.90
9810;DHT22;4944;52.514;13.192;2023-05-09T01:59:31;12.90;94.80
9810;DHT22;4944;52.514;13.192;2023-05-09T02:02:00;12.90;94.70
9810;DHT22;4944;52.514;13.192;2023-05-09T02:04:28;12.90;94.70
9810;DHT22;4944;52.514;13.192;2023-05-09T02:06:56;12.90;94.70
9810;DHT22;4944;52.514;13.192;2023-05-09T02:09:24;12.90;94.70
9810;DHT22;4944;52.514;13.192;2023-05-09T02:11:51;12.80;94.60
9810;DHT22;4944;52.514;13.192;2023-05-09T02:14:18;12.80;94.70
9810;DHT22;4944;52.514;13.192;2023-05-09T02:16:45;12.80;94.40
9810;DHT22;4944;52.514;13.192;2023-05-09T02:19:13;12.70;94.50
9810;DHT22;4944;52.514;13.192;2023-05-09T02:21:41;12.70;94.40
9810;DHT22;4944;52.514;13.192;2023-05-09T02:24:08;12.70;94.50
9810;DHT22;4944;52.514;13.192;2023-05-09T02:26:35;12.70;94.40
9810;DHT22;4944;52.514;13.192;2023-05-09T02:29:04;12.70;94.40
9810;DHT22;4944;52.514;13.192;2023-05-09T02:31:32;12.70;94.50
9810;DHT22;4944;52.514;13.192;2023-05-09T02:34:01;12.70;94.40
9810;DHT22;4944;52.514;13.192;2023-05-09T02:36:31;12.70;94.30
9810;DHT22;4944;52.514;13.192;2023-05-09T02:38:59;12.70;94.40
9810;DHT22;4944;52.514;13.192;2023-05-09T02:41:26;12.70;94.40
9810;DHT22;4944;52.514;13.192;2023-05-09T02:43:53;12.60;94.30
9810;DHT22;4944;52.514;13.192;2023-05-09T02:46:20;12.60;94.30
9810;DHT22;4944;52.514;13.192;2023-05-09T02:48:47;12.60;94.30
9810;DHT22;4944;52.514;13.192;2023-05-09T02:51:14;12.50;94.20
9810;DHT22;4944;52.514;13.192;2023-05-09T02:53:50;12.50;94.20
9810;DHT22;4944;52.514;13.192;2023-05-09T02:56:17;12.50;94.30
9810;DHT22;4944;52.514;13.192;2023-05-09T02:58:44;12.40;94.40
9810;DHT22;4944;52.514;13.192;2023-05-09T03:01:15;12.40;94.40
9810;DHT22;4944;52.514;13.192;2023-05-09T03:03:43;12.40;94.30
9810;DHT22;4944;52.514;13.192;2023-05-09T03:06:10;12.40;94.30
9810;DHT22;4944;52.514;13.192;2023-05-09T03:08:37;12.40;94.40
9810;DHT22;4944;52.514;13.192;2023-05-09T03:11:05;12.30;94.40
9810;DHT22;4944;52.514;13.192;2023-05-09T03:13:32;12.30;94.30
9810;DHT22;4944;52.514;13.192;2023-05-09T03:15:59;12.30;94.40
9810;DHT22;4944;52.514;13.192;2023-05-09T03:18:26;12.30;94.40
9810;DHT22;4944;52.514;13.192;2023-05-09T03:20:53;12.30;94.40
9810;DHT22;4944;52.514;13.192;2023-05-09T03:23:20;12.30;94.40
9810;DHT22;4944;52.514;13.192;2023-05-09T03:25:47;12.30;94.40
9810;DHT22;4944;52.514;13.192;2023-05-09T03:28:15;12.20;94.40
9810;DHT22;4944;52.514;13.192;2023-05-09T03:30:42;12.20;94.40
9810;DHT22;4944;52.514;13.192;2023-05-09T03:33:09;12.20;94.30
9810;DHT22;4944;52.514;13.192;2023-05-09T03:35:35;12.20;94.40
9810;DHT22;4944;52.514;13.192;2023-05-09T03:38:02;12.20;94.40
9810;DHT22;4944;52.514;13.192;2023-05-09T03:40:30;12.20;94.40
9810;DHT22;4944;52.514;13.192;2023-05-09T03:42:57;12.20;94.80
9810;DHT22;4944;52.514;13.192;2023-05-09T03:45:25;12.20;94.50
9810;DHT22;4944;52.514;13.192;2023-05-09T03:47:52;12.10;94.40
9810;DHT22;4944;52.514;13.192;2023-05-09T03:50:19;12.10;94.40
9810;DHT22;4944;52.514;13.192;2023-05-09T03:52:51;12.10;94.50
9810;DHT22;4944;52.514;13.192;2023-05-09T03:55:19;12.10;94.50
9810;DHT22;4944;52.514;13.192;2023-05-09T03:57:48;12.10;94.50
9810;DHT22;4944;52.514;13.192;2023-05-09T04:00:15;12.10;94.50
9810;DHT22;4944;52.514;13.192;2023-05-09T04:02:44;12.00;94.70
9810;DHT22;4944;52.514;13.192;2023-05-09T04:05:11;12.00;94.70
9810;DHT22;4944;52.514;13.192;2023-05-09T04:07:38;12.00;94.70
9810;DHT22;4944;52.514;13.192;2023-05-09T04:10:06;12.00;94.70
9810;DHT22;4944;52.514;13.192;2023-05-09T04:12:33;11.90;94.70
9810;DHT22;4944;52.514;13.192;2023-05-09T04:15:00;11.90;94.80
9810;DHT22;4944;52.514;13.192;2023-05-09T04:17:26;11.90;94.80
9810;DHT22;4944;52.514;13.192;2023-05-09T04:19:55;11.90;94.90
9810;DHT22;4944;52.514;13.192;2023-05-09T04:22:22;11.90;94.90
9810;DHT22;4944;52.514;13.192;2023-05-09T04:24:49;11.90;94.90
9810;DHT22;4944;52.514;13.192;2023-05-09T04:27:15;11.90;95.20
9810;DHT22;4944;52.514;13.192;2023-05-09T04:29:42;11.90;95.10
9810;DHT22;4944;52.514;13.192;2023-05-09T04:32:09;11.90;94.90
9810;DHT22;4944;52.514;13.192;2023-05-09T04:34:36;11.90;95.30
9810;DHT22;4944;52.514;13.192;2023-05-09T04:37:04;11.80;95.00
9810;DHT22;4944;52.514;13.192;2023-05-09T04:39:31;11.90;95.10
9810;DHT22;4944;52.514;13.192;2023-05-09T04:41:58;11.90;95.10
9810;DHT22;4944;52.514;13.192;2023-05-09T04:44:25;11.80;95.10
9810;DHT22;4944;52.514;13.192;2023-05-09T04:46:53;11.80;95.30
9810;DHT22;4944;52.514;13.192;2023-05-09T04:49:20;11.80;95.40
9810;DHT22;4944;52.514;13.192;2023-05-09T04:51:47;11.80;95.40
9810;DHT22;4944;52.514;13.192;2023-05-09T04:54:15;11.90;95.50
9810;DHT22;4944;52.514;13.192;2023-05-09T04:56:42;11.90;95.30
9810;DHT22;4944;52.514;13.192;2023-05-09T04:59:09;11.90;95.30
9810;DHT22;4944;52.514;13.192;2023-05-09T05:01:36;11.90;95.30
9810;DHT22;4944;52.514;13.192;2023-05-09T05:04:03;11.90;95.40
9810;DHT22;4944;52.514;13.192;2023-05-09T05:06:30;11.90;95.60
9810;DHT22;4944;52.514;13.192;2023-05-09T05:08:57;11.90;95.40
9810;DHT22;4944;52.514;13.192;2023-05-09T05:11:25;12.00;95.50
9810;DHT22;4944;52.514;13.192;2023-05-09T05:13:52;12.00;95.60
9810;DHT22;4944;52.514;13.192;2023-05-09T05:16:19;12.00;95.50
9810;DHT22;4944;52.514;13.192;2023-05-09T05:18:46;12.00;95.50
9810;DHT22;4944;52.514;13.192;2023-05-09T05:21:13;12.00;95.50
9810;DHT22;4944;52.514;13.192;2023-05-09T05:23:40;12.00;95.50
9810;DHT22;4944;52.514;13.192;2023-05-09T05:26:07;12.00;95.80
9810;DHT22;4944;52.514;13.192;2023-05-09T05:28:36;12.00;95.70
9810;DHT22;4944;52.514;13.192;2023-05-09T05:31:03;12.00;95.70
9810;DHT22;4944;52.514;13.192;2023-05-09T05:33:29;12.00;95.50
9810;DHT22;4944;52.514;13.192;2023-05-09T05:35:56;12.10;95.80
9810;DHT22;4944;52.514;13.192;2023-05-09T05:38:23;12.10;95.80
9810;DHT22;4944;52.514;13.192;2023-05-09T05:40:50;12.10;95.60
9810;DHT22;4944;52.514;13.192;2023-05-09T05:43:17;12.10;95.70
9810;DHT22;4944;52.514;13.192;2023-05-09T05:45:45;12.10;95.60
9810;DHT22;4944;52.514;13.192;2023-05-09T05:48:12;12.10;95.50
9810;DHT22;4944;52.514;13.192;2023-05-09T05:50:39;12.20;95.60
9810;DHT22;4944;52.514;13.192;2023-05-09T05:53:06;12.20;95.30
9810;DHT22;4944;52.514;13.192;2023-05-09T05:55:33;12.20;95.30
9810;DHT22;4944;52.514;13.192;2023-05-09T05:58:00;12.20;95.10
9810;DHT22;4944;52.514;13.192;2023-05-09T06:00:26;12.20;95.00
9810;DHT22;4944;52.514;13.192;2023-05-09T06:02:55;12.20;95.10
9810;DHT22;4944;52.514;13.192;2023-05-09T06:05:22;12.20;95.30
9810;DHT22;4944;52.514;13.192;2023-05-09T06:07:49;12.30;95.20
9810;DHT22;4944;52.514;13.192;2023-05-09T06:10:15;12.30;95.30
9810;DHT22;4944;52.514;13.192;2023-05-09T06:12:42;12.30;95.20
9810;DHT22;4944;52.514;13.192;2023-05-09T06:15:10;12.30;95.00
9810;DHT22;4944;52.514;13.192;2023-05-09T06:17:37;12.40;95.00
9810;DHT22;4944;52.514;13.192;2023-05-09T06:20:06;12.40;94.70
9810;DHT22;4944;52.514;13.192;2023-05-09T06:22:33;12.30;94.50
9810;DHT22;4944;52.514;13.192;2023-05-09T06:25:00;12.40;94.60
9810;DHT22;4944;52.514;13.192;2023-05-09T06:27:27;12.40;94.70
9810;DHT22;4944;52.514;13.192;2023-05-09T06:29:54;12.50;94.70
9810;DHT22;4944;52.514;13.192;2023-05-09T06:32:21;12.50;94.60
9810;DHT22;4944;52.514;13.192;2023-05-09T06:34:49;12.50;94.50
9810;DHT22;4944;52.514;13.192;2023-05-09T06:37:18;12.60;94.30
9810;DHT22;4944;52.514;13.192;2023-05-09T06:39:45;12.60;94.50
9810;DHT22;4944;52.514;13.192;2023-05-09T06:42:12;12.60;94.30
9810;DHT22;4944;52.514;13.192;2023-05-09T06:44:39;12.70;94.50
9810;DHT22;4944;52.514;13.192;2023-05-09T06:47:06;12.70;94.30
9810;DHT22;4944;52.514;13.192;2023-05-09T06:49:33;12.70;94.60
9810;DHT22;4944;52.514;13.192;2023-05-09T06:51:59;12.80;95.00
9810;DHT22;4944;52.514;13.192;2023-05-09T06:54:28;12.80;94.90
9810;DHT22;4944;52.514;13.192;2023-05-09T06:56:55;12.80;94.70
9810;DHT22;4944;52.514;13.192;2023-05-09T06:59:22;12.80;94.70
9810;DHT22;4944;52.514;13.192;2023-05-09T07:01:48;12.80;94.40
9810;DHT22;4944;52.514;13.192;2023-05-09T07:04:15;12.90;94.40
9810;DHT22;4944;52.514;13.192;2023-05-09T07:06:42;12.80;94.60
9810;DHT22;4944;52.514;13.192;2023-05-09T07:09:09;12.90;94.40
9810;DHT22;4944;52.514;13.192;2023-05-09T07:11:37;12.90;94.10
9810;DHT22;4944;52.514;13.192;2023-05-09T07:14:06;12.90;94.30
9810;DHT22;4944;52.514;13.192;2023-05-09T07:16:33;13.00;94.50
9810;DHT22;4944;52.514;13.192;2023-05-09T07:19:00;13.00;94.60
9810;DHT22;4944;52.514;13.192;2023-05-09T07:21:27;13.00;94.20
9810;DHT22;4944;52.514;13.192;2023-05-09T07:23:54;13.00;94.20
9810;DHT22;4944;52.514;13.192;2023-05-09T07:26:21;13.00;94.80
9810;DHT22;4944;52.514;13.192;2023-05-09T07:28:49;13.00;94.50
9810;DHT22;4944;52.514;13.192;2023-05-09T07:31:16;13.10;94.60
9810;DHT22;4944;52.514;13.192;2023-05-09T07:33:43;13.10;94.50
9810;DHT22;4944;52.514;13.192;2023-05-09T07:36:09;13.10;93.60
9810;DHT22;4944;52.514;13.192;2023-05-09T07:38:38;13.20;94.20
9810;DHT22;4944;52.514;13.192;2023-05-09T07:41:05;13.20;93.90
9810;DHT22;4944;52.514;13.192;2023-05-09T07:43:32;13.20;93.50
9810;DHT22;4944;52.514;13.192;2023-05-09T07:46:00;13.20;93.10
9810;DHT22;4944;52.514;13.192;2023-05-09T07:48:27;13.30;93.30
9810;DHT22;4944;52.514;13.192;2023-05-09T07:50:54;13.30;93.80
9810;DHT22;4944;52.514;13.192;2023-05-09T07:53:21;13.30;93.50
9810;DHT22;4944;52.514;13.192;2023-05-09T07:55:48;13.40;93.70
9810;DHT22;4944;52.514;13.192;2023-05-09T07:58:15;13.40;93.70
9810;DHT22;4944;52.514;13.192;2023-05-09T08:00:42;13.50;94.00
9810;DHT22;4944;52.514;13.192;2023-05-09T08:03:10;13.50;93.90
9810;DHT22;4944;52.514;13.192;2023-05-09T08:05:37;13.60;94.10
9810;DHT22;4944;52.514;13.192;2023-05-09T08:08:04;13.60;94.30
9810;DHT22;4944;52.514;13.192;2023-05-09T08:10:32;13.60;94.20
9810;DHT22;4944;52.514;13.192;2023-05-09T08:12:59;13.70;94.20
9810;DHT22;4944;52.514;13.192;2023-05-09T08:15:26;13.70;94.00
9810;DHT22;4944;52.514;13.192;2023-05-09T08:17:53;13.80;93.90
9810;DHT22;4944;52.514;13.192;2023-05-09T08:20:21;13.80;93.50
9810;DHT22;4944;52.514;13.192;2023-05-09T08:22:48;13.80;93.50
9810;DHT22;4944;52.514;13.192;2023-05-09T08:25:15;13.90;93.50
9810;DHT22;4944;52.514;13.192;2023-05-09T08:27:42;13.90;93.20
9810;DHT22;4944;52.514;13.192;2023-05-09T08:30:10;13.90;93.60
9810;DHT22;4944;52.514;13.192;2023-05-09T08:32:38;14.00;94.10
9810;DHT22;4944;52.514;13.192;2023-05-09T08:35:05;14.10;93.10
9810;DHT22;4944;52.514;13.192;2023-05-09T08:37:35;14.10;93.20
9810;DHT22;4944;52.514;13.192;2023-05-09T08:40:02;14.20;93.40
9810;DHT22;4944;52.514;13.192;2023-05-09T08:42:32;14.20;93.40
9810;DHT22;4944;52.514;13.192;2023-05-09T08:45:05;14.30;92.90
9810;DHT22;4944;52.514;13.192;2023-05-09T08:47:34;14.30;92.20
9810;DHT22;4944;52.514;13.192;2023-05-09T08:50:01;14.40;92.50
9810;DHT22;4944;52.514;13.192;2023-05-09T08:52:30;14.40;92.10
9810;DHT22;4944;52.514;13.192;2023-05-09T08:54:59;14.50;92.00
9810;DHT22;4944;52.514;13.192;2023-05-09T08:57:26;14.50;92.20
9810;DHT22;4944;52.514;13.192;2023-05-09T08:59:54;14.60;91.80
9810;DHT22;4944;52.514;13.192;2023-05-09T09:02:22;14.60;91.60
9810;DHT22;4944;52.514;13.192;2023-05-09T09:04:48;14.70;92.30
9810;DHT22;4944;52.514;13.192;2023-05-09T09:07:16;14.70;91.90
9810;DHT22;4944;52.514;13.192;2023-05-09T09:09:45;14.80;91.50
9810;DHT22;4944;52.514;13.192;2023-05-09T09:12:15;14.80;90.90
9810;DHT22;4944;52.514;13.192;2023-05-09T09:14:46;14.90;91.30
9810;DHT22;4944;52.514;13.192;2023-05-09T09:17:16;15.00;90.90
9810;DHT22;4944;52.514;13.192;2023-05-09T09:19:44;15.00;91.20
9810;DHT22;4944;52.514;13.192;2023-05-09T09:22:15;15.00;90.50
9810;DHT22;4944;52.514;13.192;2023-05-09T09:24:42;15.10;91.00
9810;DHT22;4944;52.514;13.192;2023-05-09T09:27:09;15.20;90.50
9810;DHT22;4944;52.514;13.192;2023-05-09T09:29:37;15.20;91.10
9810;DHT22;4944;52.514;13.192;2023-05-09T09:32:05;15.30;90.40
9810;DHT22;4944;52.514;13.192;2023-05-09T09:34:32;15.30;90.50
9810;DHT22;4944;52.514;13.192;2023-05-09T09:36:59;15.40;91.00
9810;DHT22;4944;52.514;13.192;2023-05-09T09:39:25;15.40;90.60
9810;DHT22;4944;52.514;13.192;2023-05-09T09:41:53;15.50;90.30
9810;DHT22;4944;52.514;13.192;2023-05-09T09:44:21;15.60;90.00
9810;DHT22;4944;52.514;13.192;2023-05-09T09:46:51;15.60;90.10
9810;DHT22;4944;52.514;13.192;2023-05-09T09:49:19;15.70;90.40
9810;DHT22;4944;52.514;13.192;2023-05-09T09:51:49;15.80;90.20
9810;DHT22;4944;52.514;13.192;2023-05-09T09:54:17;15.90;88.50
9810;DHT22;4944;52.514;13.192;2023-05-09T09:56:45;15.90;88.20
9810;DHT22;4944;52.514;13.192;2023-05-09T09:59:14;16.00;86.80
9810;DHT22;4944;52.514;13.192;2023-05-09T10:01:59;16.10;87.30
9810;DHT22;4944;52.514;13.192;2023-05-09T10:04:28;16.10;85.10
9810;DHT22;4944;52.514;13.192;2023-05-09T10:06:58;16.20;86.00
9810;DHT22;4944;52.514;13.192;2023-05-09T10:09:26;16.20;87.50
9810;DHT22;4944;52.514;13.192;2023-05-09T10:11:55;16.30;86.90
9810;DHT22;4944;52.514;13.192;2023-05-09T10:14:23;16.40;88.60
9810;DHT22;4944;52.514;13.192;2023-05-09T10:16:53;16.50;90.00
9810;DHT22;4944;52.514;13.192;2023-05-09T10:19:24;16.50;88.60
9810;DHT22;4944;52.514;13.192;2023-05-09T10:21:54;16.60;90.80
9810;DHT22;4944;52.514;13.192;2023-05-09T10:24:26;16.70;90.40
9810;DHT22;4944;52.514;13.192;2023-05-09T10:26:59;16.80;90.10
9810;DHT22;4944;52.514;13.192;2023-05-09T10:29:29;16.80;88.40
9810;DHT22;4944;52.514;13.192;2023-05-09T10:32:05;16.90;89.40
9810;DHT22;4944;52.514;13.192;2023-05-09T10:34:37;17.00;90.00
9810;DHT22;4944;52.514;13.192;2023-05-09T10:37:07;17.10;90.00
9810;DHT22;4944;52.514;13.192;2023-05-09T10:39:35;17.10;88.20
9810;DHT22;4944;52.514;13.192;2023-05-09T10:42:03;17.20;87.60
9810;DHT22;4944;52.514;13.192;2023-05-09T10:44:30;17.30;89.60
9810;DHT22;4944;52.514;13.192;2023-05-09T10:46:59;17.40;87.40
9810;DHT22;4944;52.514;13.192;2023-05-09T10:49:27;17.40;88.20
9810;DHT22;4944;52.514;13.192;2023-05-09T10:51:55;17.50;87.80
9810;DHT22;4944;52.514;13.192;2023-05-09T10:54:26;17.60;88.10
9810;DHT22;4944;52.514;13.192;2023-05-09T10:56:53;17.80;87.50
9810;DHT22;4944;52.514;13.192;2023-05-09T10:59:32;17.80;86.20
9810;DHT22;4944;52.514;13.192;2023-05-09T11:01:59;18.00;84.90
9810;DHT22;4944;52.514;13.192;2023-05-09T11:04:28;18.00;84.10
9810;DHT22;4944;52.514;13.192;2023-05-09T11:06:57;18.10;84.30
9810;DHT22;4944;52.514;13.192;2023-05-09T11:09:28;18.10;84.10
9810;DHT22;4944;52.514;13.192;2023-05-09T11:12:00;18.20;84.10
9810;DHT22;4944;52.514;13.192;2023-05-09T11:14:38;18.30;84.40
9810;DHT22;4944;52.514;13.192;2023-05-09T11:17:06;18.50;85.40
9810;DHT22;4944;52.514;13.192;2023-05-09T11:19:56;18.50;85.00
9810;DHT22;4944;52.514;13.192;2023-05-09T11:22:26;18.60;84.20
9810;DHT22;4944;52.514;13.192;2023-05-09T11:25:00;18.80;84.00
9810;DHT22;4944;52.514;13.192;2023-05-09T11:27:36;18.90;82.10
9810;DHT22;4944;52.514;13.192;2023-05-09T11:30:05;18.90;82.80
9810;DHT22;4944;52.514;13.192;2023-05-09T11:32:33;19.00;83.00
9810;DHT22;4944;52.514;13.192;2023-05-09T11:35:07;19.10;81.00
9810;DHT22;4944;52.514;13.192;2023-05-09T11:37:44;19.20;81.30
9810;DHT22;4944;52.514;13.192;2023-05-09T11:40:13;19.20;81.10
9810;DHT22;4944;52.514;13.192;2023-05-09T11:42:41;19.40;83.10
9810;DHT22;4944;52.514;13.192;2023-05-09T11:45:09;19.40;81.00
9810;DHT22;4944;52.514;13.192;2023-05-09T11:47:36;19.50;80.80
9810;DHT22;4944;52.514;13.192;2023-05-09T11:50:05;19.50;82.60
9810;DHT22;4944;52.514;13.192;2023-05-09T11:52:32;19.60;81.30
9810;DHT22;4944;52.514;13.192;2023-05-09T11:55:01;19.70;80.40
9810;DHT22;4944;52.514;13.192;2023-05-09T11:57:28;19.80;80.30
9810;DHT22;4944;52.514;13.192;2023-05-09T11:59:55;19.90;79.60
9810;DHT22;4944;52.514;13.192;2023-05-09T12:02:22;19.90;77.60
9810;DHT22;4944;52.514;13.192;2023-05-09T12:04:49;20.00;77.30
9810;DHT22;4944;52.514;13.192;2023-05-09T12:07:16;20.20;78.70
9810;DHT22;4944;52.514;13.192;2023-05-09T12:09:43;20.30;77.40
9810;DHT22;4944;52.514;13.192;2023-05-09T12:12:12;20.30;77.40
9810;DHT22;4944;52.514;13.192;2023-05-09T12:14:40;20.40;78.60
9810;DHT22;4944;52.514;13.192;2023-05-09T12:17:09;20.50;79.40
9810;DHT22;4944;52.514;13.192;2023-05-09T12:19:36;20.70;81.20
9810;DHT22;4944;52.514;13.192;2023-05-09T12:22:03;20.90;79.90
9810;DHT22;4944;52.514;13.192;2023-05-09T12:24:34;20.90;77.50
9810;DHT22;4944;52.514;13.192;2023-05-09T12:27:01;21.00;76.40
9810;DHT22;4944;52.514;13.192;2023-05-09T12:29:30;21.10;76.70
9810;DHT22;4944;52.514;13.192;2023-05-09T12:31:58;21.00;75.60
9810;DHT22;4944;52.514;13.192;2023-05-09T12:34:25;21.10;76.50
9810;DHT22;4944;52.514;13.192;2023-05-09T12:36:52;21.10;77.30
9810;DHT22;4944;52.514;13.192;2023-05-09T12:39:19;21.30;79.60
9810;DHT22;4944;52.514;13.192;2023-05-09T12:41:48;21.40;76.70
9810;DHT22;4944;52.514;13.192;2023-05-09T12:44:20;21.40;77.70
9810;DHT22;4944;52.514;13.192;2023-05-09T12:46:59;21.50;76.20
9810;DHT22;4944;52.514;13.192;2023-05-09T12:49:28;21.60;75.50
9810;DHT22;4944;52.514;13.192;2023-05-09T12:51:59;21.50;74.80
9810;DHT22;4944;52.514;13.192;2023-05-09T12:54:27;21.60;75.30
9810;DHT22;4944;52.514;13.192;2023-05-09T12:56:56;21.60;76.00
9810;DHT22;4944;52.514;13.192;2023-05-09T12:59:25;21.80;76.60
9810;DHT22;4944;52.514;13.192;2023-05-09T13:01:55;21.90;75.30
9810;DHT22;4944;52.514;13.192;2023-05-09T13:04:24;22.00;73.00
9810;DHT22;4944;52.514;13.192;2023-05-09T13:06:53;22.00;73.40
9810;DHT22;4944;52.514;13.192;2023-05-09T13:09:22;22.20;75.50
9810;DHT22;4944;52.514;13.192;2023-05-09T13:11:50;22.30;75.50
9810;DHT22;4944;52.514;13.192;2023-05-09T13:14:18;22.30;74.50
9810;DHT22;4944;52.514;13.192;2023-05-09T13:16:46;22.40;75.70
9810;DHT22;4944;52.514;13.192;2023-05-09T13:19:13;22.50;75.20
9810;DHT22;4944;52.514;13.192;2023-05-09T13:21:41;22.60;76.10
9810;DHT22;4944;52.514;13.192;2023-05-09T13:24:08;22.60;74.00
9810;DHT22;4944;52.514;13.192;2023-05-09T13:26:35;22.70;73.40
9810;DHT22;4944;52.514;13.192;2023-05-09T13:29:02;22.60;72.60
9810;DHT22;4944;52.514;13.192;2023-05-09T13:31:29;22.70;73.20
9810;DHT22;4944;52.514;13.192;2023-05-09T13:33:56;22.70;72.10
9810;DHT22;4944;52.514;13.192;2023-05-09T13:36:23;22.70;73.10
9810;DHT22;4944;52.514;13.192;2023-05-09T13:38:51;22.70;71.60
9810;DHT22;4944;52.514;13.192;2023-05-09T13:41:18;22.70;71.60
9810;DHT22;4944;52.514;13.192;2023-05-09T13:43:48;22.60;71.00
9810;DHT22;4944;52.514;13.192;2023-05-09T13:46:15;22.70;71.80
9810;DHT22;4944;52.514;13.192;2023-05-09T13:48:42;22.80;70.00
9810;DHT22;4944;52.514;13.192;2023-05-09T13:51:09;22.90;70.90
9810;DHT22;4944;52.514;13.192;2023-05-09T13:53:36;23.00;70.70
9810;DHT22;4944;52.514;13.192;2023-05-09T13:56:06;23.00;70.50
9810;DHT22;4944;52.514;13.192;2023-05-09T13:58:33;23.00;71.60
9810;DHT22;4944;52.514;13.192;2023-05-09T14:01:01;23.00;72.60
9810;DHT22;4944;52.514;13.192;2023-05-09T14:03:28;23.20;70.60
9810;DHT22;4944;52.514;13.192;2023-05-09T14:05:55;23.10;69.40
9810;DHT22;4944;52.514;13.192;2023-05-09T14:08:22;23.20;70.30
9810;DHT22;4944;52.514;13.192;2023-05-09T14:10:49;23.20;70.10
9810;DHT22;4944;52.514;13.192;2023-05-09T14:13:17;23.30;70.00
9810;DHT22;4944;52.514;13.192;2023-05-09T14:15:44;23.20;70.40
9810;DHT22;4944;52.514;13.192;2023-05-09T14:18:11;23.20;70.00
9810;DHT22;4944;52.514;13.192;2023-05-09T14:20:38;23.30;70.30
9810;DHT22;4944;52.514;13.192;2023-05-09T14:23:06;23.30;69.60
9810;DHT22;4944;52.514;13.192;2023-05-09T14:25:33;23.30;68.30
9810;DHT22;4944;52.514;13.192;2023-05-09T14:28:00;23.30;67.50
9810;DHT22;4944;52.514;13.192;2023-05-09T14:30:28;23.40;68.20
9810;DHT22;4944;52.514;13.192;2023-05-09T14:32:56;23.40;69.00
9810;DHT22;4944;52.514;13.192;2023-05-09T14:35:22;23.40;68.90
9810;DHT22;4944;52.514;13.192;2023-05-09T14:37:49;23.50;68.90
9810;DHT22;4944;52.514;13.192;2023-05-09T14:40:17;23.70;70.40
9810;DHT22;4944;52.514;13.192;2023-05-09T14:42:44;23.70;68.20
9810;DHT22;4944;52.514;13.192;2023-05-09T14:45:12;23.80;67.10
9810;DHT22;4944;52.514;13.192;2023-05-09T14:47:41;23.80;67.10
9810;DHT22;4944;52.514;13.192;2023-05-09T14:50:08;23.70;66.80
9810;DHT22;4944;52.514;13.192;2023-05-09T14:52:40;23.70;66.70
9810;DHT22;4944;52.514;13.192;2023-05-09T14:55:07;23.70;67.30
9810;DHT22;4944;52.514;13.192;2023-05-09T14:57:34;23.60;66.50
9810;DHT22;4944;52.514;13.192;2023-05-09T15:00:01;23.60;67.50
9810;DHT22;4944;52.514;13.192;2023-05-09T15:02:28;23.60;68.40
9810;DHT22;4944;52.514;13.192;2023-05-09T15:04:57;23.70;69.30
9810;DHT22;4944;52.514;13.192;2023-05-09T15:07:24;23.70;68.70
9810;DHT22;4944;52.514;13.192;2023-05-09T15:09:50;23.80;69.30
9810;DHT22;4944;52.514;13.192;2023-05-09T15:12:17;23.80;68.20
9810;DHT22;4944;52.514;13.192;2023-05-09T15:14:44;23.80;68.80
9810;DHT22;4944;52.514;13.192;2023-05-09T15:17:11;23.80;67.50
9810;DHT22;4944;52.514;13.192;2023-05-09T15:19:38;23.80;67.80
9810;DHT22;4944;52.514;13.192;2023-05-09T15:22:07;23.70;68.40
9810;DHT22;4944;52.514;13.192;2023-05-09T15:24:34;23.70;68.60
9810;DHT22;4944;52.514;13.192;2023-05-09T15:27:01;23.80;68.30
9810;DHT22;4944;52.514;13.192;2023-05-09T15:29:28;23.80;66.60
9810;DHT22;4944;52.514;13.192;2023-05-09T15:31:55;23.80;68.20
9810;DHT22;4944;52.514;13.192;2023-05-09T15:34:22;23.80;68.00
9810;DHT22;4944;52.514;13.192;2023-05-09T15:36:49;23.80;67.00
9810;DHT22;4944;52.514;13.192;2023-05-09T15:39:17;23.80;66.30
9810;DHT22;4944;52.514;13.192;2023-05-09T15:41:45;23.70;66.20
9810;DHT22;4944;52.514;13.192;2023-05-09T15:44:11;23.70;67.00
9810;DHT22;4944;52.514;13.192;2023-05-09T15:46:39;23.70;66.60
9810;DHT22;4944;52.514;13.192;2023-05-09T15:49:06;23.70;66.60
9810;DHT22;4944;52.514;13.192;2023-05-09T15:51:33;23.60;66.20
9810;DHT22;4944;52.514;13.192;2023-05-09T15:53:59;23.60;65.20